sensor_id;sensor_type;location;lat;lon;timestamp;temperature;humidity
12413;DHT22;13877;18.896;-99.222;2023-05-07T00:00:38;31.90;23.70
12413;DHT22;13877;18.896;-99.222;2023-05-07T00:03:04;31.90;23.60
12413;DHT22;13877;18.896;-99.222;2023-05-07T00:05:32;31.80;24.40
12413;DHT22;13877;18.896;-99.222;2023-05-07T00:07:58;31.70;23.30
12413;DHT22;13877;18.896;-99.222;2023-05-07T00:10:28;31.60;24.10
12413;DHT22;13877;18.896;-99.222;2023-05-07T00:12:56;31.50;24.70
12413;DHT22;13877;18.896;-99.222;2023-05-07T00:15:22;31.40;24.00
12413;DHT22;13877;18.896;-99.222;2023-05-07T00:17:49;31.30;24.20
12413;DHT22;13877;18.896;-99.222;2023-05-07T00:20:16;31.30;24.10
12413;DHT22;13877;18.896;-99.222;2023-05-07T00:22:43;31.30;24.50
12413;DHT22;13877;18.896;-99.222;2023-05-07T00:25:10;31.20;25.40
12413;DHT22;13877;18.896;-99.222;2023-05-07T00:27:37;31.10;24.60
12413;DHT22;13877;18.896;-99.222;2023-05-07T00:30:04;31.10;24.90
12413;DHT22;13877;18.896;-99.222;2023-05-07T00:32:31;31.00;24.70
12413;DHT22;13877;18.896;-99.222;2023-05-07T00:34:58;31.00;25.30
12413;DHT22;13877;18.896;-99.222;2023-05-07T00:37:25;30.90;25.40
12413;DHT22;13877;18.896;-99.222;2023-05-07T00:39:52;30.90;25.50
12413;DHT22;13877;18.896;-99.222;2023-05-07T00:42:19;30.80;25.80
12413;DHT22;13877;18.896;-99.222;2023-05-07T00:44:47;30.60;26.60
12413;DHT22;13877;18.896;-99.222;2023-05-07T00:47:14;30.50;27.00
12413;DHT22;13877;18.896;-99.222;2023-05-07T00:49:45;30.50;26.60
12413;DHT22;13877;18.896;-99.222;2023-05-07T00:52:15;30.40;26.90
12413;DHT22;13877;18.896;-99.222;2023-05-07T00:54:43;30.30;26.60
12413;DHT22;13877;18.896;-99.222;2023-05-07T00:57:11;30.30;26.70
12413;DHT22;13877;18.896;-99.222;2023-05-07T00:59:38;30.30;27.00
12413;DHT22;13877;18.896;-99.222;2023-05-07T01:02:07;30.20;27.60
12413;DHT22;13877;18.896;-99.222;2023-05-07T01:04:34;30.10;27.70
12413;DHT22;13877;18.896;-99.222;2023-05-07T01:07:01;30.00;28.10
12413;DHT22;13877;18.896;-99.222;2023-05-07T01:09:29;30.00;28.60
12413;DHT22;13877;18.896;-99.222;2023-05-07T01:11:58;30.00;29.40
12413;DHT22;13877;18.896;-99.222;2023-05-07T01:14:25;29.90;29.80
12413;DHT22;13877;18.896;-99.222;2023-05-07T01:16:53;29.90;30.20
12413;DHT22;13877;18.896;-99.222;2023-05-07T01:19:21;29.80;30.40
12413;DHT22;13877;18.896;-99.222;2023-05-07T01:21:49;29.80;31.20
12413;DHT22;13877;18.896;-99.222;2023-05-07T01:24:19;29.70;31.10
12413;DHT22;13877;18.896;-99.222;2023-05-07T01:26:46;29.60;30.90
12413;DHT22;13877;18.896;-99.222;2023-05-07T01:29:16;29.50;30.80
12413;DHT22;13877;18.896;-99.222;2023-05-07T01:31:44;29.50;31.00
12413;DHT22;13877;18.896;-99.222;2023-05-07T01:34:11;29.50;30.70
12413;DHT22;13877;18.896;-99.222;2023-05-07T01:36:40;29.50;31.00
12413;DHT22;13877;18.896;-99.222;2023-05-07T01:39:10;29.40;30.80
12413;DHT22;13877;18.896;-99.222;2023-05-07T01:41:37;29.40;30.60
12413;DHT22;13877;18.896;-99.222;2023-05-07T01:44:05;29.40;30.80
12413;DHT22;13877;18.896;-99.222;2023-05-07T01:46:33;29.40;30.60
12413;DHT22;13877;18.896;-99.222;2023-05-07T01:49:01;29.40;30.90
12413;DHT22;13877;18.896;-99.222;2023-05-07T01:51:27;29.30;30.70
12413;DHT22;13877;18.896;-99.222;2023-05-07T01:53:55;29.40;30.50
12413;DHT22;13877;18.896;-99.222;2023-05-07T01:56:22;29.40;30.90
12413;DHT22;13877;18.896;-99.222;2023-05-07T01:58:50;29.40;30.70
12413;DHT22;13877;18.896;-99.222;2023-05-07T02:01:18;29.40;30.80
12413;DHT22;13877;18.896;-99.222;2023-05-07T02:03:45;29.40;30.60
12413;DHT22;13877;18.896;-99.222;2023-05-07T02:06:20;29.50;30.20
12413;DHT22;13877;18.896;-99.222;2023-05-07T02:08:47;29.40;30.40
12413;DHT22;13877;18.896;-99.222;2023-05-07T02:11:15;29.40;30.60
12413;DHT22;13877;18.896;-99.222;2023-05-07T02:13:42;29.20;30.50
12413;DHT22;13877;18.896;-99.222;2023-05-07T02:16:10;29.30;30.20
12413;DHT22;13877;18.896;-99.222;2023-05-07T02:18:38;29.30;29.70
12413;DHT22;13877;18.896;-99.222;2023-05-07T02:21:05;29.30;30.60
12413;DHT22;13877;18.896;-99.222;2023-05-07T02:23:32;29.10;30.70
12413;DHT22;13877;18.896;-99.222;2023-05-07T02:25:59;29.00;31.20
12413;DHT22;13877;18.896;-99.222;2023-05-07T02:28:27;28.80;31.40
12413;DHT22;13877;18.896;-99.222;2023-05-07T02:31:04;28.80;30.60
12413;DHT22;13877;18.896;-99.222;2023-05-07T02:33:32;28.80;30.90
12413;DHT22;13877;18.896;-99.222;2023-05-07T02:36:07;28.70;32.00
12413;DHT22;13877;18.896;-99.222;2023-05-07T02:38:38;28.50;33.00
12413;DHT22;13877;18.896;-99.222;2023-05-07T02:41:05;28.40;32.00
12413;DHT22;13877;18.896;-99.222;2023-05-07T02:43:32;28.40;31.60
12413;DHT22;13877;18.896;-99.222;2023-05-07T02:46:07;28.30;32.60
12413;DHT22;13877;18.896;-99.222;2023-05-07T02:48:38;28.30;31.20
12413;DHT22;13877;18.896;-99.222;2023-05-07T02:51:05;28.40;33.50
12413;DHT22;13877;18.896;-99.222;2023-05-07T02:53:33;28.20;32.00
12413;DHT22;13877;18.896;-99.222;2023-05-07T02:56:01;28.10;32.80
12413;DHT22;13877;18.896;-99.222;2023-05-07T02:58:28;28.10;31.60
12413;DHT22;13877;18.896;-99.222;2023-05-07T03:00:56;28.50;29.70
12413;DHT22;13877;18.896;-99.222;2023-05-07T03:03:32;28.80;28.80
12413;DHT22;13877;18.896;-99.222;2023-05-07T03:05:59;28.80;28.60
12413;DHT22;13877;18.896;-99.222;2023-05-07T03:08:26;28.80;28.10
12413;DHT22;13877;18.896;-99.222;2023-05-07T03:10:53;28.80;28.40
12413;DHT22;13877;18.896;-99.222;2023-05-07T03:13:20;28.50;28.80
12413;DHT22;13877;18.896;-99.222;2023-05-07T03:15:48;28.40;28.60
12413;DHT22;13877;18.896;-99.222;2023-05-07T03:18:15;28.30;29.40
12413;DHT22;13877;18.896;-99.222;2023-05-07T03:20:42;28.20;29.30
12413;DHT22;13877;18.896;-99.222;2023-05-07T03:23:08;28.10;30.00
12413;DHT22;13877;18.896;-99.222;2023-05-07T03:25:36;27.90;30.80
12413;DHT22;13877;18.896;-99.222;2023-05-07T03:28:03;28.10;30.20
12413;DHT22;13877;18.896;-99.222;2023-05-07T03:30:45;28.00;30.40
12413;DHT22;13877;18.896;-99.222;2023-05-07T03:33:12;28.40;29.40
12413;DHT22;13877;18.896;-99.222;2023-05-07T03:35:40;28.50;29.10
12413;DHT22;13877;18.896;-99.222;2023-05-07T03:38:07;28.40;29.20
12413;DHT22;13877;18.896;-99.222;2023-05-07T03:40:36;28.50;29.00
12413;DHT22;13877;18.896;-99.222;2023-05-07T03:43:04;28.50;28.60
12413;DHT22;13877;18.896;-99.222;2023-05-07T03:45:34;28.50;28.50
12413;DHT22;13877;18.896;-99.222;2023-05-07T03:48:12;28.40;28.70
12413;DHT22;13877;18.896;-99.222;2023-05-07T03:50:39;28.40;28.60
12413;DHT22;13877;18.896;-99.222;2023-05-07T03:53:07;28.60;28.00
12413;DHT22;13877;18.896;-99.222;2023-05-07T03:55:38;28.70;28.10
12413;DHT22;13877;18.896;-99.222;2023-05-07T03:58:05;28.70;27.90
12413;DHT22;13877;18.896;-99.222;2023-05-07T04:00:32;28.70;27.90
12413;DHT22;13877;18.896;-99.222;2023-05-07T04:03:13;28.60;28.00
12413;DHT22;13877;18.896;-99.222;2023-05-07T04:05:41;28.50;28.30
12413;DHT22;13877;18.896;-99.222;2023-05-07T04:08:08;28.50;29.00
12413;DHT22;13877;18.896;-99.222;2023-05-07T04:10:39;28.40;29.40
12413;DHT22;13877;18.896;-99.222;2023-05-07T04:13:10;28.40;30.00
12413;DHT22;13877;18.896;-99.222;2023-05-07T04:15:37;28.20;30.30
12413;DHT22;13877;18.896;-99.222;2023-05-07T04:18:08;28.00;31.70
12413;DHT22;13877;18.896;-99.222;2023-05-07T04:20:36;27.80;32.10
12413;DHT22;13877;18.896;-99.222;2023-05-07T04:23:04;27.60;32.80
12413;DHT22;13877;18.896;-99.222;2023-05-07T04:25:32;27.40;33.20
12413;DHT22;13877;18.896;-99.222;2023-05-07T04:28:09;27.30;33.60
12413;DHT22;13877;18.896;-99.222;2023-05-07T04:30:39;27.20;34.20
12413;DHT22;13877;18.896;-99.222;2023-05-07T04:33:08;27.10;35.00
12413;DHT22;13877;18.896;-99.222;2023-05-07T04:35:36;27.10;35.00
12413;DHT22;13877;18.896;-99.222;2023-05-07T04:38:05;27.00;36.00
12413;DHT22;13877;18.896;-99.222;2023-05-07T04:40:32;26.80;36.50
12413;DHT22;13877;18.896;-99.222;2023-05-07T04:43:01;26.70;38.00
12413;DHT22;13877;18.896;-99.222;2023-05-07T04:45:32;26.70;38.20
12413;DHT22;13877;18.896;-99.222;2023-05-07T04:47:59;26.60;38.50
12413;DHT22;13877;18.896;-99.222;2023-05-07T04:50:26;26.50;38.80
12413;DHT22;13877;18.896;-99.222;2023-05-07T04:52:57;26.40;39.30
12413;DHT22;13877;18.896;-99.222;2023-05-07T04:55:24;26.40;39.90
12413;DHT22;13877;18.896;-99.222;2023-05-07T04:57:52;26.30;40.40
12413;DHT22;13877;18.896;-99.222;2023-05-07T05:00:20;26.30;40.50
12413;DHT22;13877;18.896;-99.222;2023-05-07T05:02:49;26.20;40.50
12413;DHT22;13877;18.896;-99.222;2023-05-07T05:05:19;26.20;40.50
12413;DHT22;13877;18.896;-99.222;2023-05-07T05:07:48;26.20;41.50
12413;DHT22;13877;18.896;-99.222;2023-05-07T05:10:15;26.20;42.00
12413;DHT22;13877;18.896;-99.222;2023-05-07T05:12:43;26.30;39.20
12413;DHT22;13877;18.896;-99.222;2023-05-07T05:15:14;26.40;38.40
12413;DHT22;13877;18.896;-99.222;2023-05-07T05:17:42;26.30;41.70
12413;DHT22;13877;18.896;-99.222;2023-05-07T05:20:08;26.00;39.90
12413;DHT22;13877;18.896;-99.222;2023-05-07T05:22:40;25.90;42.30
12413;DHT22;13877;18.896;-99.222;2023-05-07T05:25:08;25.70;39.70
12413;DHT22;13877;18.896;-99.222;2023-05-07T05:27:35;26.00;39.40
12413;DHT22;13877;18.896;-99.222;2023-05-07T05:30:03;26.10;39.50
12413;DHT22;13877;18.896;-99.222;2023-05-07T05:32:31;26.10;39.60
12413;DHT22;13877;18.896;-99.222;2023-05-07T05:34:59;26.10;38.20
12413;DHT22;13877;18.896;-99.222;2023-05-07T05:37:26;26.30;38.30
12413;DHT22;13877;18.896;-99.222;2023-05-07T05:39:54;26.30;38.10
12413;DHT22;13877;18.896;-99.222;2023-05-07T05:42:22;26.40;37.10
12413;DHT22;13877;18.896;-99.222;2023-05-07T05:44:49;26.50;37.10
12413;DHT22;13877;18.896;-99.222;2023-05-07T05:47:16;26.50;36.90
12413;DHT22;13877;18.896;-99.222;2023-05-07T05:49:43;26.60;36.90
12413;DHT22;13877;18.896;-99.222;2023-05-07T05:52:12;26.60;35.70
12413;DHT22;13877;18.896;-99.222;2023-05-07T05:54:40;26.70;33.50
12413;DHT22;13877;18.896;-99.222;2023-05-07T05:57:07;26.60;32.80
12413;DHT22;13877;18.896;-99.222;2023-05-07T05:59:34;26.60;32.40
12413;DHT22;13877;18.896;-99.222;2023-05-07T06:02:01;26.60;32.80
12413;DHT22;13877;18.896;-99.222;2023-05-07T06:04:29;26.60;33.20
12413;DHT22;13877;18.896;-99.222;2023-05-07T06:06:57;26.60;33.60
12413;DHT22;13877;18.896;-99.222;2023-05-07T06:09:25;26.40;34.20
12413;DHT22;13877;18.896;-99.222;2023-05-07T06:11:52;26.20;35.00
12413;DHT22;13877;18.896;-99.222;2023-05-07T06:14:19;26.00;35.80
12413;DHT22;13877;18.896;-99.222;2023-05-07T06:16:46;25.80;36.40
12413;DHT22;13877;18.896;-99.222;2023-05-07T06:19:14;25.60;36.90
12413;DHT22;13877;18.896;-99.222;2023-05-07T06:21:41;25.50;37.50
12413;DHT22;13877;18.896;-99.222;2023-05-07T06:24:09;25.30;37.90
12413;DHT22;13877;18.896;-99.222;2023-05-07T06:26:38;25.30;37.70
12413;DHT22;13877;18.896;-99.222;2023-05-07T06:29:06;25.30;37.80
12413;DHT22;13877;18.896;-99.222;2023-05-07T06:31:33;25.40;37.70
12413;DHT22;13877;18.896;-99.222;2023-05-07T06:34:07;25.50;37.50
12413;DHT22;13877;18.896;-99.222;2023-05-07T06:36:37;25.40;37.60
12413;DHT22;13877;18.896;-99.222;2023-05-07T06:39:24;25.30;37.80
12413;DHT22;13877;18.896;-99.222;2023-05-07T06:41:52;25.20;38.40
12413;DHT22;13877;18.896;-99.222;2023-05-07T06:44:26;25.10;38.70
12413;DHT22;13877;18.896;-99.222;2023-05-07T06:47:19;25.10;39.20
12413;DHT22;13877;18.896;-99.222;2023-05-07T06:49:50;25.00;39.50
12413;DHT22;13877;18.896;-99.222;2023-05-07T06:52:19;25.00;40.20
12413;DHT22;13877;18.896;-99.222;2023-05-07T06:54:48;25.10;41.00
12413;DHT22;13877;18.896;-99.222;2023-05-07T06:57:17;25.20;41.20
12413;DHT22;13877;18.896;-99.222;2023-05-07T06:59:44;25.10;41.60
12413;DHT22;13877;18.896;-99.222;2023-05-07T07:02:11;25.00;42.40
12413;DHT22;13877;18.896;-99.222;2023-05-07T07:04:38;25.00;42.80
12413;DHT22;13877;18.896;-99.222;2023-05-07T07:07:10;25.10;43.00
12413;DHT22;13877;18.896;-99.222;2023-05-07T07:09:36;25.00;44.00
12413;DHT22;13877;18.896;-99.222;2023-05-07T07:12:05;25.10;44.40
12413;DHT22;13877;18.896;-99.222;2023-05-07T07:14:33;25.10;45.10
12413;DHT22;13877;18.896;-99.222;2023-05-07T07:17:01;25.00;45.70
12413;DHT22;13877;18.896;-99.222;2023-05-07T07:19:28;25.00;46.20
12413;DHT22;13877;18.896;-99.222;2023-05-07T07:21:56;25.00;46.80
12413;DHT22;13877;18.896;-99.222;2023-05-07T07:24:23;25.00;47.10
12413;DHT22;13877;18.896;-99.222;2023-05-07T07:26:55;25.00;47.50
12413;DHT22;13877;18.896;-99.222;2023-05-07T07:29:23;24.90;47.70
12413;DHT22;13877;18.896;-99.222;2023-05-07T07:31:53;24.80;48.10
12413;DHT22;13877;18.896;-99.222;2023-05-07T07:34:21;24.80;49.00
12413;DHT22;13877;18.896;-99.222;2023-05-07T07:36:49;24.60;49.80
12413;DHT22;13877;18.896;-99.222;2023-05-07T07:39:18;24.50;50.80
12413;DHT22;13877;18.896;-99.222;2023-05-07T07:41:46;24.40;51.50
12413;DHT22;13877;18.896;-99.222;2023-05-07T07:44:14;24.40;51.70
12413;DHT22;13877;18.896;-99.222;2023-05-07T07:46:41;24.20;52.00
12413;DHT22;13877;18.896;-99.222;2023-05-07T07:49:09;24.20;52.40
12413;DHT22;13877;18.896;-99.222;2023-05-07T07:51:36;24.20;52.70
12413;DHT22;13877;18.896;-99.222;2023-05-07T07:54:03;24.20;53.20
12413;DHT22;13877;18.896;-99.222;2023-05-07T07:56:33;24.10;53.10
12413;DHT22;13877;18.896;-99.222;2023-05-07T07:59:02;24.00;53.30
12413;DHT22;13877;18.896;-99.222;2023-05-07T08:01:30;23.90;53.90
12413;DHT22;13877;18.896;-99.222;2023-05-07T08:03:58;23.90;54.10
12413;DHT22;13877;18.896;-99.222;2023-05-07T08:06:33;23.80;54.50
12413;DHT22;13877;18.896;-99.222;2023-05-07T08:09:00;23.60;55.10
12413;DHT22;13877;18.896;-99.222;2023-05-07T08:11:27;23.50;55.70
12413;DHT22;13877;18.896;-99.222;2023-05-07T08:13:56;23.50;55.90
12413;DHT22;13877;18.896;-99.222;2023-05-07T08:16:24;23.60;55.90
12413;DHT22;13877;18.896;-99.222;2023-05-07T08:18:52;23.60;56.10
12413;DHT22;13877;18.896;-99.222;2023-05-07T08:21:19;23.50;56.30
12413;DHT22;13877;18.896;-99.222;2023-05-07T08:23:46;23.50;56.60
12413;DHT22;13877;18.896;-99.222;2023-05-07T08:26:13;23.50;56.40
12413;DHT22;13877;18.896;-99.222;2023-05-07T08:28:40;23.50;56.10
12413;DHT22;13877;18.896;-99.222;2023-05-07T08:31:08;23.60;56.40
12413;DHT22;13877;18.896;-99.222;2023-05-07T08:33:38;23.40;56.60
12413;DHT22;13877;18.896;-99.222;2023-05-07T08:36:06;23.30;57.00
12413;DHT22;13877;18.896;-99.222;2023-05-07T08:38:33;23.20;57.00
12413;DHT22;13877;18.896;-99.222;2023-05-07T08:41:00;23.20;56.90
12413;DHT22;13877;18.896;-99.222;2023-05-07T08:43:31;23.20;56.90
12413;DHT22;13877;18.896;-99.222;2023-05-07T08:46:00;23.20;57.00
12413;DHT22;13877;18.896;-99.222;2023-05-07T08:48:32;23.10;57.30
12413;DHT22;13877;18.896;-99.222;2023-05-07T08:51:13;23.20;56.50
12413;DHT22;13877;18.896;-99.222;2023-05-07T08:53:41;23.30;57.30
12413;DHT22;13877;18.896;-99.222;2023-05-07T08:56:12;23.10;57.30
12413;DHT22;13877;18.896;-99.222;2023-05-07T08:58:39;22.90;58.00
12413;DHT22;13877;18.896;-99.222;2023-05-07T09:01:14;22.70;58.60
12413;DHT22;13877;18.896;-99.222;2023-05-07T09:03:45;22.50;58.80
12413;DHT22;13877;18.896;-99.222;2023-05-07T09:06:12;22.60;58.00
12413;DHT22;13877;18.896;-99.222;2023-05-07T09:08:40;22.70;57.80
12413;DHT22;13877;18.896;-99.222;2023-05-07T09:11:08;22.60;58.10
12413;DHT22;13877;18.896;-99.222;2023-05-07T09:13:37;22.60;57.40
12413;DHT22;13877;18.896;-99.222;2023-05-07T09:16:14;22.60;57.90
12413;DHT22;13877;18.896;-99.222;2023-05-07T09:18:44;22.50;57.00
12413;DHT22;13877;18.896;-99.222;2023-05-07T09:21:18;22.50;57.30
12413;DHT22;13877;18.896;-99.222;2023-05-07T09:23:53;22.30;58.00
12413;DHT22;13877;18.896;-99.222;2023-05-07T09:26:24;22.10;58.60
12413;DHT22;13877;18.896;-99.222;2023-05-07T09:28:52;22.00;57.70
12413;DHT22;13877;18.896;-99.222;2023-05-07T09:31:20;21.90;57.60
12413;DHT22;13877;18.896;-99.222;2023-05-07T09:33:50;22.00;56.70
12413;DHT22;13877;18.896;-99.222;2023-05-07T09:36:19;22.00;56.10
12413;DHT22;13877;18.896;-99.222;2023-05-07T09:38:46;21.90;56.10
12413;DHT22;13877;18.896;-99.222;2023-05-07T09:41:13;21.90;56.20
12413;DHT22;13877;18.896;-99.222;2023-05-07T09:43:57;22.10;54.90
12413;DHT22;13877;18.896;-99.222;2023-05-07T09:46:30;22.30;54.00
12413;DHT22;13877;18.896;-99.222;2023-05-07T09:49:02;22.40;53.00
12413;DHT22;13877;18.896;-99.222;2023-05-07T09:51:39;22.40;52.90
12413;DHT22;13877;18.896;-99.222;2023-05-07T09:54:08;22.40;52.30
12413;DHT22;13877;18.896;-99.222;2023-05-07T09:56:38;22.50;50.00
12413;DHT22;13877;18.896;-99.222;2023-05-07T09:59:14;22.70;47.70
12413;DHT22;13877;18.896;-99.222;2023-05-07T10:01:43;22.70;48.10
12413;DHT22;13877;18.896;-99.222;2023-05-07T10:04:12;22.70;48.40
12413;DHT22;13877;18.896;-99.222;2023-05-07T10:06:45;22.70;46.60
12413;DHT22;13877;18.896;-99.222;2023-05-07T10:09:13;22.70;45.50
12413;DHT22;13877;18.896;-99.222;2023-05-07T10:11:40;22.80;45.10
12413;DHT22;13877;18.896;-99.222;2023-05-07T10:14:07;22.70;45.80
12413;DHT22;13877;18.896;-99.222;2023-05-07T10:16:36;22.60;45.20
12413;DHT22;13877;18.896;-99.222;2023-05-07T10:19:08;22.60;44.10
12413;DHT22;13877;18.896;-99.222;2023-05-07T10:21:51;22.60;44.30
12413;DHT22;13877;18.896;-99.222;2023-05-07T10:24:29;22.50;44.30
12413;DHT22;13877;18.896;-99.222;2023-05-07T10:26:59;22.40;43.70
12413;DHT22;13877;18.896;-99.222;2023-05-07T10:32:08;22.40;43.10
12413;DHT22;13877;18.896;-99.222;2023-05-07T10:34:43;22.40;42.60
12413;DHT22;13877;18.896;-99.222;2023-05-07T10:37:11;22.40;42.50
12413;DHT22;13877;18.896;-99.222;2023-05-07T10:39:38;22.30;42.30
12413;DHT22;13877;18.896;-99.222;2023-05-07T10:42:13;22.40;42.10
12413;DHT22;13877;18.896;-99.222;2023-05-07T10:44:46;22.40;42.30
12413;DHT22;13877;18.896;-99.222;2023-05-07T10:47:21;22.40;42.40
12413;DHT22;13877;18.896;-99.222;2023-05-07T10:52:24;22.30;43.00
12413;DHT22;13877;18.896;-99.222;2023-05-07T10:58:32;22.00;42.60
12413;DHT22;13877;18.896;-99.222;2023-05-07T11:01:13;22.10;42.90
12413;DHT22;13877;18.896;-99.222;2023-05-07T11:04:16;22.10;42.60
12413;DHT22;13877;18.896;-99.222;2023-05-07T11:07:25;22.20;42.70
12413;DHT22;13877;18.896;-99.222;2023-05-07T11:09:55;22.20;43.00
12413;DHT22;13877;18.896;-99.222;2023-05-07T11:15:14;22.10;43.10
12413;DHT22;13877;18.896;-99.222;2023-05-07T11:17:55;22.00;43.10
12413;DHT22;13877;18.896;-99.222;2023-05-07T11:23:54;22.00;43.40
12413;DHT22;13877;18.896;-99.222;2023-05-07T11:26:40;22.00;43.60
12413;DHT22;13877;18.896;-99.222;2023-05-07T11:31:43;22.00;44.10
12413;DHT22;13877;18.896;-99.222;2023-05-07T11:34:12;22.00;44.40
12413;DHT22;13877;18.896;-99.222;2023-05-07T11:36:42;22.00;44.50
12413;DHT22;13877;18.896;-99.222;2023-05-07T11:39:32;22.00;44.20
12413;DHT22;13877;18.896;-99.222;2023-05-07T11:42:00;22.00;44.10
12413;DHT22;13877;18.896;-99.222;2023-05-07T11:44:46;22.00;44.20
12413;DHT22;13877;18.896;-99.222;2023-05-07T11:47:18;21.90;44.00
12413;DHT22;13877;18.896;-99.222;2023-05-07T11:49:53;21.80;43.80
12413;DHT22;13877;18.896;-99.222;2023-05-07T11:52:22;21.80;44.00
12413;DHT22;13877;18.896;-99.222;2023-05-07T11:54:53;21.70;44.20
12413;DHT22;13877;18.896;-99.222;2023-05-07T11:57:22;21.70;44.40
12413;DHT22;13877;18.896;-99.222;2023-05-07T11:59:56;21.70;44.70
12413;DHT22;13877;18.896;-99.222;2023-05-07T12:02:24;21.70;45.30
12413;DHT22;13877;18.896;-99.222;2023-05-07T12:04:51;21.70;44.90
12413;DHT22;13877;18.896;-99.222;2023-05-07T12:07:19;21.70;44.60
12413;DHT22;13877;18.896;-99.222;2023-05-07T12:09:46;21.80;45.10
12413;DHT22;13877;18.896;-99.222;2023-05-07T12:12:14;21.70;44.70
12413;DHT22;13877;18.896;-99.222;2023-05-07T12:14:43;21.80;44.50
12413;DHT22;13877;18.896;-99.222;2023-05-07T12:17:11;21.70;44.70
12413;DHT22;13877;18.896;-99.222;2023-05-07T12:19:40;21.60;44.40
12413;DHT22;13877;18.896;-99.222;2023-05-07T12:22:08;21.70;44.30
12413;DHT22;13877;18.896;-99.222;2023-05-07T12:24:49;21.80;43.80
12413;DHT22;13877;18.896;-99.222;2023-05-07T12:27:23;21.80;43.30
12413;DHT22;13877;18.896;-99.222;2023-05-07T12:29:51;21.80;43.30
12413;DHT22;13877;18.896;-99.222;2023-05-07T12:32:19;21.80;43.70
12413;DHT22;13877;18.896;-99.222;2023-05-07T12:34:50;21.90;44.50
12413;DHT22;13877;18.896;-99.222;2023-05-07T12:37:24;21.90;44.70
12413;DHT22;13877;18.896;-99.222;2023-05-07T12:40:11;22.10;45.20
12413;DHT22;13877;18.896;-99.222;2023-05-07T12:42:39;22.20;44.50
12413;DHT22;13877;18.896;-99.222;2023-05-07T12:45:16;22.20;44.60
12413;DHT22;13877;18.896;-99.222;2023-05-07T12:47:47;22.20;44.30
12413;DHT22;13877;18.896;-99.222;2023-05-07T12:50:14;22.30;44.70
12413;DHT22;13877;18.896;-99.222;2023-05-07T12:52:45;22.50;44.30
12413;DHT22;13877;18.896;-99.222;2023-05-07T12:55:17;22.60;44.00
12413;DHT22;13877;18.896;-99.222;2023-05-07T12:57:49;22.70;43.50
12413;DHT22;13877;18.896;-99.222;2023-05-07T13:00:17;22.80;43.00
12413;DHT22;13877;18.896;-99.222;2023-05-07T13:02:44;22.90;41.70
12413;DHT22;13877;18.896;-99.222;2023-05-07T13:05:12;23.00;41.60
12413;DHT22;13877;18.896;-99.222;2023-05-07T13:07:39;23.10;41.80
12413;DHT22;13877;18.896;-99.222;2023-05-07T13:10:07;23.10;41.60
12413;DHT22;13877;18.896;-99.222;2023-05-07T13:12:34;23.20;41.10
12413;DHT22;13877;18.896;-99.222;2023-05-07T13:15:01;23.30;41.30
12413;DHT22;13877;18.896;-99.222;2023-05-07T13:17:28;23.50;41.20
12413;DHT22;13877;18.896;-99.222;2023-05-07T13:19:57;23.50;41.20
12413;DHT22;13877;18.896;-99.222;2023-05-07T13:22:23;23.70;42.00
12413;DHT22;13877;18.896;-99.222;2023-05-07T13:24:50;23.80;42.20
12413;DHT22;13877;18.896;-99.222;2023-05-07T13:27:17;23.90;42.70
12413;DHT22;13877;18.896;-99.222;2023-05-07T13:29:46;24.10;42.40
12413;DHT22;13877;18.896;-99.222;2023-05-07T13:32:12;24.20;42.70
12413;DHT22;13877;18.896;-99.222;2023-05-07T13:34:39;24.40;42.70
12413;DHT22;13877;18.896;-99.222;2023-05-07T13:37:06;24.60;43.10
12413;DHT22;13877;18.896;-99.222;2023-05-07T13:39:34;24.80;43.20
12413;DHT22;13877;18.896;-99.222;2023-05-07T13:42:01;24.90;43.70
12413;DHT22;13877;18.896;-99.222;2023-05-07T13:44:28;25.20;43.90
12413;DHT22;13877;18.896;-99.222;2023-05-07T13:46:54;25.40;44.10
12413;DHT22;13877;18.896;-99.222;2023-05-07T13:49:22;25.60;44.60
12413;DHT22;13877;18.896;-99.222;2023-05-07T13:51:49;25.80;45.20
12413;DHT22;13877;18.896;-99.222;2023-05-07T13:54:16;26.00;43.90
12413;DHT22;13877;18.896;-99.222;2023-05-07T13:56:43;26.30;44.50
12413;DHT22;13877;18.896;-99.222;2023-05-07T13:59:09;26.50;45.00
12413;DHT22;13877;18.896;-99.222;2023-05-07T14:01:36;26.60;47.60
12413;DHT22;13877;18.896;-99.222;2023-05-07T14:04:03;26.60;47.70
12413;DHT22;13877;18.896;-99.222;2023-05-07T14:06:30;26.70;48.00
12413;DHT22;13877;18.896;-99.222;2023-05-07T14:08:57;26.80;49.00
12413;DHT22;13877;18.896;-99.222;2023-05-07T14:11:24;26.90;48.30
12413;DHT22;13877;18.896;-99.222;2023-05-07T14:13:51;26.80;48.00
12413;DHT22;13877;18.896;-99.222;2023-05-07T14:16:18;27.00;48.70
12413;DHT22;13877;18.896;-99.222;2023-05-07T14:18:45;27.10;47.30
12413;DHT22;13877;18.896;-99.222;2023-05-07T14:21:12;27.00;46.80
12413;DHT22;13877;18.896;-99.222;2023-05-07T14:23:39;27.10;46.30
12413;DHT22;13877;18.896;-99.222;2023-05-07T14:26:06;27.30;45.70
12413;DHT22;13877;18.896;-99.222;2023-05-07T14:28:33;27.50;45.60
12413;DHT22;13877;18.896;-99.222;2023-05-07T14:31:01;27.50;42.50
12413;DHT22;13877;18.896;-99.222;2023-05-07T14:33:29;27.80;43.40
12413;DHT22;13877;18.896;-99.222;2023-05-07T14:35:56;27.80;44.00
12413;DHT22;13877;18.896;-99.222;2023-05-07T14:38:23;27.90;45.40
12413;DHT22;13877;18.896;-99.222;2023-05-07T14:40:50;27.90;44.60
12413;DHT22;13877;18.896;-99.222;2023-05-07T14:43:18;28.20;42.90
12413;DHT22;13877;18.896;-99.222;2023-05-07T14:45:46;28.40;41.20
12413;DHT22;13877;18.896;-99.222;2023-05-07T14:48:13;28.40;41.20
12413;DHT22;13877;18.896;-99.222;2023-05-07T14:50:47;28.30;38.60
12413;DHT22;13877;18.896;-99.222;2023-05-07T14:53:15;28.10;34.80
12413;DHT22;13877;18.896;-99.222;2023-05-07T14:55:42;28.50;36.20
12413;DHT22;13877;18.896;-99.222;2023-05-07T14:58:11;28.70;35.70
12413;DHT22;13877;18.896;-99.222;2023-05-07T15:00:38;28.60;35.80
12413;DHT22;13877;18.896;-99.222;2023-05-07T15:03:09;28.90;37.20
12413;DHT22;13877;18.896;-99.222;2023-05-07T15:05:38;28.80;37.00
12413;DHT22;13877;18.896;-99.222;2023-05-07T15:08:04;29.10;35.90
12413;DHT22;13877;18.896;-99.222;2023-05-07T15:10:34;29.00;35.90
12413;DHT22;13877;18.896;-99.222;2023-05-07T15:13:10;28.80;36.20
12413;DHT22;13877;18.896;-99.222;2023-05-07T15:15:38;29.40;36.40
12413;DHT22;13877;18.896;-99.222;2023-05-07T15:18:05;29.30;35.80
12413;DHT22;13877;18.896;-99.222;2023-05-07T15:20:32;29.80;36.10
12413;DHT22;13877;18.896;-99.222;2023-05-07T15:22:59;29.40;36.20
12413;DHT22;13877;18.896;-99.222;2023-05-07T15:25:26;29.40;37.30
12413;DHT22;13877;18.896;-99.222;2023-05-07T15:27:53;29.50;35.90
12413;DHT22;13877;18.896;-99.222;2023-05-07T15:30:20;29.70;35.50
12413;DHT22;13877;18.896;-99.222;2023-05-07T15:32:47;29.70;35.40